sensor_id;sensor_type;location;lat;lon;timestamp;P1;durP1;ratioP1;P2;durP2;ratioP2
49340;SDS011;35209;51.050;13.678;2023-02-28T00:03:21;6.20;;;5.60;;
49340;SDS011;35209;51.050;13.678;2023-02-28T00:08:22;6.47;;;5.82;;
49340;SDS011;35209;51.050;13.678;2023-02-28T00:13:24;7.03;;;6.25;;
49340;SDS011;35209;51.050;13.678;2023-02-28T00:18:26;6.70;;;6.00;;
49340;SDS011;35209;51.050;13.678;2023-02-28T00:23:31;5.70;;;5.22;;
49340;SDS011;35209;51.050;13.678;2023-02-28T00:28:34;8.02;;;6.10;;
49340;SDS011;35209;51.050;13.678;2023-02-28T00:33:35;7.30;;;6.60;;
49340;SDS011;35209;51.050;13.678;2023-02-28T00:38:37;6.40;;;5.80;;
49340;SDS011;35209;51.050;13.678;2023-02-28T00:43:40;6.50;;;5.43;;
49340;SDS011;35209;51.050;13.678;2023-02-28T00:48:43;6.57;;;5.97;;
49340;SDS011;35209;51.050;13.678;2023-02-28T00:53:45;7.47;;;6.13;;
49340;SDS011;35209;51.050;13.678;2023-02-28T00:58:47;5.82;;;5.32;;
49340;SDS011;35209;51.050;13.678;2023-02-28T01:03:48;8.18;;;6.35;;
49340;SDS011;35209;51.050;13.678;2023-02-28T01:08:50;7.97;;;5.65;;
49340;SDS011;35209;51.050;13.678;2023-02-28T01:13:52;6.82;;;5.88;;
49340;SDS011;35209;51.050;13.678;2023-02-28T01:18:53;6.95;;;5.57;;
49340;SDS011;35209;51.050;13.678;2023-02-28T01:23:56;6.30;;;5.70;;
49340;SDS011;35209;51.050;13.678;2023-02-28T01:28:59;6.32;;;5.68;;
49340;SDS011;35209;51.050;13.678;2023-02-28T01:34:00;7.05;;;5.80;;
49340;SDS011;35209;51.050;13.678;2023-02-28T01:39:03;5.47;;;4.53;;
49340;SDS011;35209;51.050;13.678;2023-02-28T01:49:45;6.63;;;5.57;;
49340;SDS011;35209;51.050;13.678;2023-02-28T01:54:52;6.90;;;5.65;;
49340;SDS011;35209;51.050;13.678;2023-02-28T01:59:58;6.88;;;5.28;;
49340;SDS011;35209;51.050;13.678;2023-02-28T02:05:17;6.90;;;6.07;;
49340;SDS011;35209;51.050;13.678;2023-02-28T02:10:24;5.57;;;5.07;;
49340;SDS011;35209;51.050;13.678;2023-02-28T02:15:34;7.00;;;6.40;;
49340;SDS011;35209;51.050;13.678;2023-02-28T02:20:46;6.60;;;5.80;;
49340;SDS011;35209;51.050;13.678;2023-02-28T02:36:33;7.07;;;6.47;;
49340;SDS011;35209;51.050;13.678;2023-02-28T02:41:40;7.53;;;6.82;;
49340;SDS011;35209;51.050;13.678;2023-02-28T02:46:51;8.05;;;7.28;;
49340;SDS011;35209;51.050;13.678;2023-02-28T02:52:05;8.07;;;7.22;;
49340;SDS011;35209;51.050;13.678;2023-02-28T02:57:12;7.72;;;6.93;;
49340;SDS011;35209;51.050;13.678;2023-02-28T03:02:21;9.07;;;8.27;;
49340;SDS011;35209;51.050;13.678;2023-02-28T03:07:25;8.40;;;7.53;;
49340;SDS011;35209;51.050;13.678;2023-02-28T03:12:32;7.45;;;6.72;;
49340;SDS011;35209;51.050;13.678;2023-02-28T03:17:51;7.38;;;6.70;;
49340;SDS011;35209;51.050;13.678;2023-02-28T03:39:34;8.40;;;7.70;;
49340;SDS011;35209;51.050;13.678;2023-02-28T03:44:46;8.30;;;7.55;;
49340;SDS011;35209;51.050;13.678;2023-02-28T03:50:05;8.63;;;7.70;;
49340;SDS011;35209;51.050;13.678;2023-02-28T03:55:12;8.65;;;7.85;;
49340;SDS011;35209;51.050;13.678;2023-02-28T04:00:35;8.18;;;7.47;;
49340;SDS011;35209;51.050;13.678;2023-02-28T04:05:51;9.52;;;7.85;;
49340;SDS011;35209;51.050;13.678;2023-02-28T04:11:37;9.07;;;8.27;;
49340;SDS011;35209;51.050;13.678;2023-02-28T04:16:33;8.18;;;7.47;;
49340;SDS011;35209;51.050;13.678;2023-02-28T04:21:37;9.90;;;9.07;;
49340;SDS011;35209;51.050;13.678;2023-02-28T04:26:41;9.60;;;8.70;;
49340;SDS011;35209;51.050;13.678;2023-02-28T04:31:45;9.95;;;9.05;;
49340;SDS011;35209;51.050;13.678;2023-02-28T04:36:47;11.70;;;9.27;;
49340;SDS011;35209;51.050;13.678;2023-02-28T04:42:12;10.05;;;9.05;;
49340;SDS011;35209;51.050;13.678;2023-02-28T04:47:14;9.20;;;8.30;;
49340;SDS011;35209;51.050;13.678;2023-02-28T04:52:16;9.25;;;8.35;;
49340;SDS011;35209;51.050;13.678;2023-02-28T04:57:17;11.55;;;10.35;;
49340;SDS011;35209;51.050;13.678;2023-02-28T05:02:19;14.75;;;11.10;;
49340;SDS011;35209;51.050;13.678;2023-02-28T05:07:22;11.50;;;10.50;;
49340;SDS011;35209;51.050;13.678;2023-02-28T05:12:24;10.77;;;9.77;;
49340;SDS011;35209;51.050;13.678;2023-02-28T05:17:26;12.82;;;10.65;;
49340;SDS011;35209;51.050;13.678;2023-02-28T05:22:27;12.20;;;11.07;;
49340;SDS011;35209;51.050;13.678;2023-02-28T05:27:29;11.25;;;9.63;;
49340;SDS011;35209;51.050;13.678;2023-02-28T05:37:32;12.32;;;11.13;;
49340;SDS011;35209;51.050;13.678;2023-02-28T05:42:34;13.05;;;11.68;;
49340;SDS011;35209;51.050;13.678;2023-02-28T05:47:36;12.43;;;11.15;;
49340;SDS011;35209;51.050;13.678;2023-02-28T05:52:37;12.23;;;10.95;;
49340;SDS011;35209;51.050;13.678;2023-02-28T05:57:39;13.07;;;11.73;;
49340;SDS011;35209;51.050;13.678;2023-02-28T06:02:41;13.27;;;10.77;;
49340;SDS011;35209;51.050;13.678;2023-02-28T06:07:42;13.43;;;11.95;;
49340;SDS011;35209;51.050;13.678;2023-02-28T06:12:45;12.65;;;11.43;;
49340;SDS011;35209;51.050;13.678;2023-02-28T06:17:46;12.68;;;11.48;;
49340;SDS011;35209;51.050;13.678;2023-02-28T06:22:48;11.93;;;10.82;;
49340;SDS011;35209;51.050;13.678;2023-02-28T06:27:52;13.32;;;11.98;;
49340;SDS011;35209;51.050;13.678;2023-02-28T06:32:54;14.05;;;12.60;;
49340;SDS011;35209;51.050;13.678;2023-02-28T06:37:56;12.30;;;11.10;;
49340;SDS011;35209;51.050;13.678;2023-02-28T06:42:58;11.48;;;10.38;;
49340;SDS011;35209;51.050;13.678;2023-02-28T06:47:59;9.75;;;8.75;;
49340;SDS011;35209;51.050;13.678;2023-02-28T06:53:01;10.63;;;9.73;;
49340;SDS011;35209;51.050;13.678;2023-02-28T06:58:03;10.70;;;9.43;;
49340;SDS011;35209;51.050;13.678;2023-02-28T07:03:15;11.27;;;10.20;;
49340;SDS011;35209;51.050;13.678;2023-02-28T07:08:18;13.88;;;11.40;;
49340;SDS011;35209;51.050;13.678;2023-02-28T07:13:20;12.10;;;10.90;;
49340;SDS011;35209;51.050;13.678;2023-02-28T07:18:23;11.65;;;10.55;;
49340;SDS011;35209;51.050;13.678;2023-02-28T07:23:25;14.10;;;12.77;;
49340;SDS011;35209;51.050;13.678;2023-02-28T07:28:27;12.68;;;11.43;;
49340;SDS011;35209;51.050;13.678;2023-02-28T07:33:28;13.32;;;11.93;;
49340;SDS011;35209;51.050;13.678;2023-02-28T07:38:30;14.27;;;11.60;;
49340;SDS011;35209;51.050;13.678;2023-02-28T07:43:35;14.68;;;13.18;;
49340;SDS011;35209;51.050;13.678;2023-02-28T07:48:37;17.02;;;12.50;;
49340;SDS011;35209;51.050;13.678;2023-02-28T07:53:39;12.70;;;11.45;;
49340;SDS011;35209;51.050;13.678;2023-02-28T07:58:40;13.10;;;11.77;;
49340;SDS011;35209;51.050;13.678;2023-02-28T08:03:42;11.73;;;10.52;;
49340;SDS011;35209;51.050;13.678;2023-02-28T08:08:44;11.48;;;10.32;;
49340;SDS011;35209;51.050;13.678;2023-02-28T08:13:46;11.65;;;10.30;;
49340;SDS011;35209;51.050;13.678;2023-02-28T08:18:48;11.20;;;10.10;;
49340;SDS011;35209;51.050;13.678;2023-02-28T08:23:53;11.75;;;10.30;;
49340;SDS011;35209;51.050;13.678;2023-02-28T08:28:55;14.45;;;10.68;;
49340;SDS011;35209;51.050;13.678;2023-02-28T08:33:59;12.38;;;9.88;;
49340;SDS011;35209;51.050;13.678;2023-02-28T08:39:00;10.88;;;9.75;;
49340;SDS011;35209;51.050;13.678;2023-02-28T08:44:02;12.27;;;10.82;;
49340;SDS011;35209;51.050;13.678;2023-02-28T08:49:04;12.05;;;10.77;;
49340;SDS011;35209;51.050;13.678;2023-02-28T08:54:07;19.15;;;9.82;;
49340;SDS011;35209;51.050;13.678;2023-02-28T08:59:09;18.60;;;10.57;;
49340;SDS011;35209;51.050;13.678;2023-02-28T09:04:11;12.85;;;10.77;;
49340;SDS011;35209;51.050;13.678;2023-02-28T09:09:17;12.43;;;10.00;;
49340;SDS011;35209;51.050;13.678;2023-02-28T09:14:19;27.42;;;11.55;;
49340;SDS011;35209;51.050;13.678;2023-02-28T09:19:21;15.05;;;10.40;;
49340;SDS011;35209;51.050;13.678;2023-02-28T09:24:23;10.20;;;7.80;;
49340;SDS011;35209;51.050;13.678;2023-02-28T09:29:25;8.82;;;7.93;;
49340;SDS011;35209;51.050;13.678;2023-02-28T09:34:27;10.18;;;8.10;;
49340;SDS011;35209;51.050;13.678;2023-02-28T09:39:32;8.73;;;7.05;;
49340;SDS011;35209;51.050;13.678;2023-02-28T09:49:46;11.02;;;6.78;;
49340;SDS011;35209;51.050;13.678;2023-02-28T09:54:49;9.20;;;6.75;;
49340;SDS011;35209;51.050;13.678;2023-02-28T10:05:35;9.82;;;6.57;;
49340;SDS011;35209;51.050;13.678;2023-02-28T10:10:45;6.82;;;5.68;;
49340;SDS011;35209;51.050;13.678;2023-02-28T10:15:56;6.45;;;5.53;;
49340;SDS011;35209;51.050;13.678;2023-02-28T10:21:03;7.00;;;6.13;;
49340;SDS011;35209;51.050;13.678;2023-02-28T10:26:10;6.50;;;5.90;;
49340;SDS011;35209;51.050;13.678;2023-02-28T10:31:15;7.90;;;6.63;;
49340;SDS011;35209;51.050;13.678;2023-02-28T10:36:20;10.13;;;7.55;;
49340;SDS011;35209;51.050;13.678;2023-02-28T10:41:27;7.43;;;6.72;;
49340;SDS011;35209;51.050;13.678;2023-02-28T10:46:33;8.63;;;7.20;;
49340;SDS011;35209;51.050;13.678;2023-02-28T10:51:38;9.05;;;8.15;;
49340;SDS011;35209;51.050;13.678;2023-02-28T10:56:41;10.80;;;8.87;;
49340;SDS011;35209;51.050;13.678;2023-02-28T11:01:45;9.32;;;8.38;;
49340;SDS011;35209;51.050;13.678;2023-02-28T11:06:56;9.73;;;8.63;;
49340;SDS011;35209;51.050;13.678;2023-02-28T11:12:04;8.77;;;7.88;;
49340;SDS011;35209;51.050;13.678;2023-02-28T11:17:13;12.13;;;9.05;;
49340;SDS011;35209;51.050;13.678;2023-02-28T11:22:37;9.30;;;8.35;;
49340;SDS011;35209;51.050;13.678;2023-02-28T11:27:51;9.30;;;8.43;;
49340;SDS011;35209;51.050;13.678;2023-02-28T11:32:54;9.35;;;8.45;;
49340;SDS011;35209;51.050;13.678;2023-02-28T11:37:56;13.43;;;8.48;;
49340;SDS011;35209;51.050;13.678;2023-02-28T11:53:47;9.43;;;8.52;;
49340;SDS011;35209;51.050;13.678;2023-02-28T12:04:42;8.60;;;7.80;;
49340;SDS011;35209;51.050;13.678;2023-02-28T12:31:04;8.20;;;7.38;;
49340;SDS011;35209;51.050;13.678;2023-02-28T12:36:14;9.10;;;8.20;;
49340;SDS011;35209;51.050;13.678;2023-02-28T12:41:40;11.40;;;8.23;;
49340;SDS011;35209;51.050;13.678;2023-02-28T12:46:47;12.85;;;9.32;;
49340;SDS011;35209;51.050;13.678;2023-02-28T12:51:52;9.85;;;8.93;;
49340;SDS011;35209;51.050;13.678;2023-02-28T12:57:12;9.63;;;8.82;;
49340;SDS011;35209;51.050;13.678;2023-02-28T13:13:16;10.43;;;9.38;;
49340;SDS011;35209;51.050;13.678;2023-02-28T13:18:53;9.98;;;9.18;;
49340;SDS011;35209;51.050;13.678;2023-02-28T13:28:58;10.88;;;9.75;;
49340;SDS011;35209;51.050;13.678;2023-02-28T13:34:05;10.80;;;9.90;;
49340;SDS011;35209;51.050;13.678;2023-02-28T14:01:08;11.40;;;10.13;;
49340;SDS011;35209;51.050;13.678;2023-02-28T14:06:28;11.82;;;10.10;;
49340;SDS011;35209;51.050;13.678;2023-02-28T14:38:04;12.63;;;11.50;;
49340;SDS011;35209;51.050;13.678;2023-02-28T14:43:18;12.02;;;10.93;;
49340;SDS011;35209;51.050;13.678;2023-02-28T14:48:25;11.70;;;10.20;;
49340;SDS011;35209;51.050;13.678;2023-02-28T14:53:29;13.60;;;12.43;;
49340;SDS011;35209;51.050;13.678;2023-02-28T14:58:36;12.23;;;10.85;;
49340;SDS011;35209;51.050;13.678;2023-02-28T15:03:38;12.30;;;11.02;;
49340;SDS011;35209;51.050;13.678;2023-02-28T15:08:42;13.38;;;11.38;;
49340;SDS011;35209;51.050;13.678;2023-02-28T15:13:45;12.98;;;11.68;;
49340;SDS011;35209;51.050;13.678;2023-02-28T15:18:49;12.65;;;11.48;;
49340;SDS011;35209;51.050;13.678;2023-02-28T15:23:55;12.25;;;10.85;;
49340;SDS011;35209;51.050;13.678;2023-02-28T15:29:10;12.10;;;11.00;;
49340;SDS011;35209;51.050;13.678;2023-02-28T15:34:20;13.60;;;12.40;;
49340;SDS011;35209;51.050;13.678;2023-02-28T15:39:29;13.27;;;11.55;;
49340;SDS011;35209;51.050;13.678;2023-02-28T15:44:33;13.82;;;12.45;;
49340;SDS011;35209;51.050;13.678;2023-02-28T15:49:39;13.32;;;12.05;;
49340;SDS011;35209;51.050;13.678;2023-02-28T15:54:47;13.20;;;11.90;;
49340;SDS011;35209;51.050;13.678;2023-02-28T15:59:53;17.83;;;12.18;;
49340;SDS011;35209;51.050;13.678;2023-02-28T16:10:12;14.13;;;12.82;;
49340;SDS011;35209;51.050;13.678;2023-02-28T16:15:19;15.05;;;13.52;;
49340;SDS011;35209;51.050;13.678;2023-02-28T16:20:28;14.60;;;13.10;;
49340;SDS011;35209;51.050;13.678;2023-02-28T16:25:35;13.68;;;12.40;;
49340;SDS011;35209;51.050;13.678;2023-02-28T16:30:39;14.10;;;12.80;;
49340;SDS011;35209;51.050;13.678;2023-02-28T16:35:41;14.57;;;12.15;;
49340;SDS011;35209;51.050;13.678;2023-02-28T16:40:43;15.38;;;12.02;;
49340;SDS011;35209;51.050;13.678;2023-02-28T16:45:46;14.18;;;12.88;;
49340;SDS011;35209;51.050;13.678;2023-02-28T16:50:48;13.68;;;12.35;;
49340;SDS011;35209;51.050;13.678;2023-02-28T16:55:50;13.88;;;12.50;;
49340;SDS011;35209;51.050;13.678;2023-02-28T17:00:52;12.82;;;11.40;;
49340;SDS011;35209;51.050;13.678;2023-02-28T17:05:54;13.40;;;12.20;;
49340;SDS011;35209;51.050;13.678;2023-02-28T17:10:56;17.27;;;13.38;;
49340;SDS011;35209;51.050;13.678;2023-02-28T17:15:58;14.70;;;13.30;;
49340;SDS011;35209;51.050;13.678;2023-02-28T17:21:00;14.85;;;13.10;;
49340;SDS011;35209;51.050;13.678;2023-02-28T17:26:02;17.48;;;13.38;;
49340;SDS011;35209;51.050;13.678;2023-02-28T17:31:07;18.15;;;15.35;;
49340;SDS011;35209;51.050;13.678;2023-02-28T17:36:30;17.65;;;15.75;;
49340;SDS011;35209;51.050;13.678;2023-02-28T17:41:32;30.45;;;19.17;;
49340;SDS011;35209;51.050;13.678;2023-02-28T17:46:34;21.45;;;19.27;;
49340;SDS011;35209;51.050;13.678;2023-02-28T17:51:36;24.20;;;19.20;;
49340;SDS011;35209;51.050;13.678;2023-02-28T17:56:38;53.67;;;25.33;;
49340;SDS011;35209;51.050;13.678;2023-02-28T18:01:39;77.43;;;30.23;;
49340;SDS011;35209;51.050;13.678;2023-02-28T18:06:43;50.30;;;29.42;;
49340;SDS011;35209;51.050;13.678;2023-02-28T18:11:52;49.15;;;29.85;;
49340;SDS011;35209;51.050;13.678;2023-02-28T18:16:55;46.40;;;28.83;;
49340;SDS011;35209;51.050;13.678;2023-02-28T18:21:57;58.08;;;31.05;;
49340;SDS011;35209;51.050;13.678;2023-02-28T18:26:59;52.05;;;31.27;;
49340;SDS011;35209;51.050;13.678;2023-02-28T18:32:01;44.22;;;28.52;;
49340;SDS011;35209;51.050;13.678;2023-02-28T18:37:04;39.50;;;27.30;;
49340;SDS011;35209;51.050;13.678;2023-02-28T18:42:06;31.50;;;23.27;;
49340;SDS011;35209;51.050;13.678;2023-02-28T18:47:07;29.17;;;22.80;;
49340;SDS011;35209;51.050;13.678;2023-02-28T18:52:09;25.85;;;22.10;;
49340;SDS011;35209;51.050;13.678;2023-02-28T18:57:11;42.35;;;25.65;;
49340;SDS011;35209;51.050;13.678;2023-02-28T19:02:13;34.20;;;25.83;;
49340;SDS011;35209;51.050;13.678;2023-02-28T19:07:14;25.98;;;23.08;;
49340;SDS011;35209;51.050;13.678;2023-02-28T19:12:16;31.35;;;24.30;;
49340;SDS011;35209;51.050;13.678;2023-02-28T19:17:20;29.73;;;24.65;;
49340;SDS011;35209;51.050;13.678;2023-02-28T19:22:22;43.08;;;24.75;;
49340;SDS011;35209;51.050;13.678;2023-02-28T19:27:24;37.35;;;25.30;;
49340;SDS011;35209;51.050;13.678;2023-02-28T19:32:26;30.15;;;25.05;;
49340;SDS011;35209;51.050;13.678;2023-02-28T19:37:28;31.33;;;24.48;;
49340;SDS011;35209;51.050;13.678;2023-02-28T19:42:30;28.20;;;23.13;;
49340;SDS011;35209;51.050;13.678;2023-02-28T19:47:33;27.95;;;23.15;;
49340;SDS011;35209;51.050;13.678;2023-02-28T19:52:35;29.60;;;23.58;;
49340;SDS011;35209;51.050;13.678;2023-02-28T19:57:37;33.53;;;23.52;;
49340;SDS011;35209;51.050;13.678;2023-02-28T20:02:39;39.47;;;23.45;;
49340;SDS011;35209;51.050;13.678;2023-02-28T20:07:41;36.38;;;23.92;;
49340;SDS011;35209;51.050;13.678;2023-02-28T20:12:44;44.85;;;26.48;;
49340;SDS011;35209;51.050;13.678;2023-02-28T20:17:46;39.17;;;27.42;;
49340;SDS011;35209;51.050;13.678;2023-02-28T20:22:47;40.58;;;26.55;;
49340;SDS011;35209;51.050;13.678;2023-02-28T20:27:49;39.53;;;27.00;;
49340;SDS011;35209;51.050;13.678;2023-02-28T20:32:51;34.35;;;24.95;;
49340;SDS011;35209;51.050;13.678;2023-02-28T20:37:53;39.65;;;27.52;;
49340;SDS011;35209;51.050;13.678;2023-02-28T20:42:55;40.22;;;27.17;;
49340;SDS011;35209;51.050;13.678;2023-02-28T20:47:56;41.88;;;28.55;;
49340;SDS011;35209;51.050;13.678;2023-02-28T20:52:58;45.72;;;27.67;;
49340;SDS011;35209;51.050;13.678;2023-02-28T20:58:00;35.92;;;26.58;;
49340;SDS011;35209;51.050;13.678;2023-02-28T21:03:02;34.63;;;27.13;;
49340;SDS011;35209;51.050;13.678;2023-02-28T21:08:03;47.47;;;29.98;;
49340;SDS011;35209;51.050;13.678;2023-02-28T21:13:05;40.08;;;28.15;;
49340;SDS011;35209;51.050;13.678;2023-02-28T21:18:07;54.60;;;32.38;;
49340;SDS011;35209;51.050;13.678;2023-02-28T21:23:09;57.80;;;35.22;;
49340;SDS011;35209;51.050;13.678;2023-02-28T21:28:11;55.13;;;34.20;;
49340;SDS011;35209;51.050;13.678;2023-02-28T21:33:12;52.75;;;32.22;;
49340;SDS011;35209;51.050;13.678;2023-02-28T21:38:14;51.08;;;32.75;;
49340;SDS011;35209;51.050;13.678;2023-02-28T21:43:16;48.33;;;32.40;;
49340;SDS011;35209;51.050;13.678;2023-02-28T21:48:18;52.08;;;31.67;;
49340;SDS011;35209;51.050;13.678;2023-02-28T21:53:19;51.00;;;32.63;;
49340;SDS011;35209;51.050;13.678;2023-02-28T21:58:21;55.63;;;31.48;;
49340;SDS011;35209;51.050;13.678;2023-02-28T22:03:22;43.42;;;29.52;;
49340;SDS011;35209;51.050;13.678;2023-02-28T22:08:24;40.95;;;29.73;;
49340;SDS011;35209;51.050;13.678;2023-02-28T22:13:26;44.17;;;28.80;;
49340;SDS011;35209;51.050;13.678;2023-02-28T22:18:28;40.15;;;29.38;;
49340;SDS011;35209;51.050;13.678;2023-02-28T22:23:30;40.70;;;28.45;;
49340;SDS011;35209;51.050;13.678;2023-02-28T22:28:33;42.60;;;28.45;;
49340;SDS011;35209;51.050;13.678;2023-02-28T22:33:35;47.00;;;30.52;;
49340;SDS011;35209;51.050;13.678;2023-02-28T22:38:37;39.10;;;29.55;;
49340;SDS011;35209;51.050;13.678;2023-02-28T22:43:40;44.38;;;29.63;;
49340;SDS011;35209;51.050;13.678;2023-02-28T22:48:42;46.72;;;29.95;;
49340;SDS011;35209;51.050;13.678;2023-02-28T22:53:45;46.08;;;30.13;;
49340;SDS011;35209;51.050;13.678;2023-02-28T22:58:49;44.13;;;30.33;;
49340;SDS011;35209;51.050;13.678;2023-02-28T23:04:01;46.95;;;30.85;;
49340;SDS011;35209;51.050;13.678;2023-02-28T23:09:05;51.65;;;30.42;;
49340;SDS011;35209;51.050;13.678;2023-02-28T23:14:08;48.85;;;29.45;;
49340;SDS011;35209;51.050;13.678;2023-02-28T23:24:17;42.55;;;29.70;;
49340;SDS011;35209;51.050;13.678;2023-02-28T23:29:22;48.15;;;29.15;;
49340;SDS011;35209;51.050;13.678;2023-02-28T23:34:25;52.83;;;30.70;;
49340;SDS011;35209;51.050;13.678;2023-02-28T23:39:30;38.05;;;27.92;;
49340;SDS011;35209;51.050;13.678;2023-02-28T23:44:32;53.88;;;31.70;;
49340;SDS011;35209;51.050;13.678;2023-02-28T23:49:34;52.67;;;30.63;;
49340;SDS011;35209;51.050;13.678;2023-02-28T23:54:36;51.42;;;30.05;;
49340;SDS011;35209;51.050;13.678;2023-02-28T23:59:37;47.60;;;31.40;;
